Map

Track Data

SID SEASON NUMBER BASIN SUBBASIN NAME ISO_TIME NATURE LAT LON WMO_WIND WMO_PRES WMO_AGENCY TRACK_TYPE DIST2LAND LANDFALL IFLAG USA_AGENCY USA_ATCF_ID USA_LAT USA_LON USA_RECORD USA_STATUS USA_WIND USA_PRES USA_SSHS USA_R34_NE USA_R34_SE USA_R34_SW USA_R34_NW USA_R50_NE USA_R50_SE USA_R50_SW USA_R50_NW USA_R64_NE USA_R64_SE USA_R64_SW USA_R64_NW USA_POCI USA_ROCI USA_RMW USA_EYE TOKYO_LAT TOKYO_LON TOKYO_GRADE TOKYO_WIND TOKYO_PRES TOKYO_R50_DIR TOKYO_R50_LONG TOKYO_R50_SHORT TOKYO_R30_DIR TOKYO_R30_LONG TOKYO_R30_SHORT TOKYO_LAND CMA_LAT CMA_LON CMA_CAT CMA_WIND CMA_PRES HKO_LAT HKO_LON HKO_CAT HKO_WIND HKO_PRES NEWDELHI_LAT NEWDELHI_LON NEWDELHI_GRADE NEWDELHI_WIND NEWDELHI_PRES NEWDELHI_CI NEWDELHI_DP NEWDELHI_POCI REUNION_LAT REUNION_LON REUNION_TYPE REUNION_WIND REUNION_PRES REUNION_TNUM REUNION_CI REUNION_RMW REUNION_R34_NE REUNION_R34_SE REUNION_R34_SW REUNION_R34_NW REUNION_R50_NE REUNION_R50_SE REUNION_R50_SW REUNION_R50_NW REUNION_R64_NE REUNION_R64_SE REUNION_R64_SW REUNION_R64_NW BOM_LAT BOM_LON BOM_TYPE BOM_WIND BOM_PRES BOM_TNUM BOM_CI BOM_RMW BOM_R34_NE BOM_R34_SE BOM_R34_SW BOM_R34_NW BOM_R50_NE BOM_R50_SE BOM_R50_SW BOM_R50_NW BOM_R64_NE BOM_R64_SE BOM_R64_SW BOM_R64_NW BOM_ROCI BOM_POCI BOM_EYE BOM_POS_METHOD BOM_PRES_METHOD NADI_LAT NADI_LON NADI_CAT NADI_WIND NADI_PRES WELLINGTON_LAT WELLINGTON_LON WELLINGTON_WIND WELLINGTON_PRES DS824_LAT DS824_LON DS824_STAGE DS824_WIND DS824_PRES TD9636_LAT TD9636_LON TD9636_STAGE TD9636_WIND TD9636_PRES TD9635_LAT TD9635_LON TD9635_WIND TD9635_PRES TD9635_ROCI NEUMANN_LAT NEUMANN_LON NEUMANN_CLASS NEUMANN_WIND NEUMANN_PRES MLC_LAT MLC_LON MLC_CLASS MLC_WIND MLC_PRES USA_GUST BOM_GUST BOM_GUST_PER REUNION_GUST REUNION_GUST_PER USA_SEAHGT USA_SEARAD_NE USA_SEARAD_SE USA_SEARAD_SW USA_SEARAD_NW STORM_SPEED STORM_DIR
1998169N12265 1998 33 EP MM NOT_NAMED 1998-06-18 00:00:00 NR 11.5000 -95.5000 main 474 445 O_____________ jtwc_ep EP021998 11.5000 -95.5000 20 -1 7 303
1998169N12265 1998 33 EP MM NOT_NAMED 1998-06-18 03:00:00 NR 11.6925 -95.8074 main 445 416 P_____________ EP021998 11.6925 -95.8074 20 -1 8 300
1998169N12265 1998 33 EP MM NOT_NAMED 1998-06-18 06:00:00 NR 11.9000 -96.2000 main 416 391 O_____________ jtwc_ep EP021998 11.9000 -96.2000 20 -1 10 296
1998169N12265 1998 33 EP MM NOT_NAMED 1998-06-18 09:00:00 NR 12.1349 -96.7401 main 392 366 P_____________ EP021998 12.1349 -96.7401 20 -1 13 293
1998169N12265 1998 33 EP MM NOT_NAMED 1998-06-18 12:00:00 NR 12.4000 -97.4000 main 368 358 O_____________ jtwc_ep EP021998 12.4000 -97.4000 20 -1 15 293
1998169N12265 1998 33 EP MM NOT_NAMED 1998-06-18 15:00:00 NR 12.7000 -98.1275 main 362 352 P_____________ EP021998 12.7000 -98.1275 20 -1 16 292
1998169N12265 1998 33 EP MM NOT_NAMED 1998-06-18 18:00:00 NR 13.0000 -98.9000 main 356 349 O_____________ jtwc_ep EP021998 13.0000 -98.9000 20 -1 17 291
1998169N12265 1998 33 EP MM NOT_NAMED 1998-06-18 21:00:00 NR 13.2877 -99.7098 main 356 353 P_____________ EP021998 13.2877 -99.7098 20 -1 15 289
1998169N12265 1998 33 EP MM NOT_NAMED 1998-06-19 00:00:00 NR 13.5000 -100.400 main 366 363 O_____________ jtwc_ep EP021998 13.5000 -100.400 20 -1 10 285
1998169N12265 1998 33 EP MM NOT_NAMED 1998-06-19 03:00:00 NR 13.5566 -100.736 main 363 363 P_____________ EP021998 13.5566 -100.736 22 -1 7 278
1998169N12265 1998 33 EP MM NOT_NAMED 1998-06-19 06:00:00 NR 13.6000 -101.100 main 378 378 O_____________ jtwc_ep EP021998 13.6000 -101.100 25 -1 11 279
1998169N12265 1998 33 EP MM NOT_NAMED 1998-06-19 09:00:00 NR 13.7254 -101.883 main 409 401 P_____________ EP021998 13.7178 -101.876 25 -1 17 284
1998169N12265 1998 33 EP MM NOT_NAMED 1998-06-19 12:00:00 NR 14.0000 -102.800 main 411 401 O_____________ jtwc_ep EP021998 14.0000 -102.800 25 -1 19 296
1998169N12265 1998 33 EP MM NOT_NAMED 1998-06-19 15:00:00 NR 14.5272 -103.615 main 405 366 P_____________ EP021998 14.5849 -103.672 25 -1 20 306
1998169N12265 1998 33 EP MM NOT_NAMED 1998-06-19 18:00:00 TS 15.1333 -104.433 25 hurdat_epa main 369 356 O_____________ hurdat_epa EP021998 15.2000 -104.500 TD 25 -1 18 302
1998169N12265 1998 33 EP MM NOT_NAMED 1998-06-19 21:00:00 TS 15.4926 -105.189 main 361 361 P_____________ EP021998 15.5446 -105.231 TD 27 -1 16 295
1998169N12265 1998 33 EP MM NOT_NAMED 1998-06-20 00:00:00 TS 15.8000 -105.900 30 hurdat_epa main 378 377 O_____________ hurdat_epa EP021998 15.8000 -105.900 TD 30 -1 15 295
1998169N12265 1998 33 EP MM NOT_NAMED 1998-06-20 03:00:00 TS 16.1098 -106.575 main 395 391 P_____________ EP021998 16.1074 -106.573 TD 30 -1 14 296
1998169N12265 1998 33 EP MM NOT_NAMED 1998-06-20 06:00:00 TS 16.4000 -107.200 30 hurdat_epa main 403 401 O_____________ hurdat_epa EP021998 16.4000 -107.200 TD 30 -1 13 295
1998169N12265 1998 33 EP MM NOT_NAMED 1998-06-20 09:00:00 TS 16.6574 -107.785 main 422 422 P_____________ EP021998 16.6574 -107.788 TD 30 -1 12 295
1998169N12265 1998 33 EP MM NOT_NAMED 1998-06-20 12:00:00 TS 16.9000 -108.300 30 hurdat_epa main 445 445 O_____________ hurdat_epa EP021998 16.9000 -108.300 TD 30 -1 10 299
1998169N12265 1998 33 EP MM NOT_NAMED 1998-06-20 15:00:00 TS 17.1598 -108.742 main 454 454 P_____________ EP021998 17.1573 -108.723 TD 30 -1 9 302
1998169N12265 1998 33 EP MM NOT_NAMED 1998-06-20 18:00:00 TS 17.4000 -109.133 30 hurdat_epa main 476 476 O_____________ hurdat_epa EP021998 17.4000 -109.100 TD 30 -1 9 301
1998169N12265 1998 33 EP MM NOT_NAMED 1998-06-20 21:00:00 TS 17.6057 -109.517 main 499 499 P_____________ EP021998 17.6224 -109.500 TD 30 -1 8 297
1998169N12265 1998 33 EP MM NOT_NAMED 1998-06-21 00:00:00 TS 17.7667 -109.900 30 hurdat_epa main 524 524 O_____________ hurdat_epa EP021998 17.8000 -109.900 TD 30 -1 8 290
1998169N12265 1998 33 EP MM NOT_NAMED 1998-06-21 03:00:00 TS 17.8815 -110.294 main 556 552 P_____________ EP021998 17.9148 -110.285 TD 30 -1 8 284
1998169N12265 1998 33 EP MM NOT_NAMED 1998-06-21 06:00:00 TS 17.9667 -110.733 30 hurdat_epa main 552 552 O_____________ hurdat_epa EP021998 18.0000 -110.700 TD 30 -1 9 280
1998169N12265 1998 33 EP MM NOT_NAMED 1998-06-21 09:00:00 TS 18.0501 -111.262 main 553 553 P_____________ EP021998 18.1000 -111.185 TD 30 -1 10 280
1998169N12265 1998 33 EP MM NOT_NAMED 1998-06-21 12:00:00 TS 18.1455 -111.782 30 hurdat_epa main 568 558 O_____________ hurdat_epa EP021998 18.2000 -111.700 TD 30 -1 10 282
1998169N12265 1998 33 EP MM NOT_NAMED 1998-06-21 15:00:00 TS 18.2574 -112.248 main 563 563 P_____________ EP021998 18.2999 -112.208 TD 30 -1 9 285
1998169N12265 1998 33 EP MM NOT_NAMED 1998-06-21 18:00:00 TS 18.3714 -112.700 30 hurdat_epa main 576 576 O_____________ hurdat_epa EP021998 18.4000 -112.700 TD 30 -1 9 286
1998169N12265 1998 33 EP MM NOT_NAMED 1998-06-21 21:00:00 TS 18.5002 -113.160 main 593 593 P_____________ EP021998 18.5002 -113.160 TD 27 -1 9 285
1998169N12265 1998 33 EP MM NOT_NAMED 1998-06-22 00:00:00 TS 18.6000 -113.600 25 hurdat_epa main 609 O_____________ hurdat_epa EP021998 18.6000 -113.600 TD 25 -1 9 283

About IBTrACS Database

This database is a web-friendly format of International Best Track Archive for Climate Stewardship (IBTrACS), a global best track data archive curated by NOAA dating back to 1842.

Updated: 2021-10-25